createdAt,value
2023-01-19T00:00:50.154Z,100034.69
2023-01-19T00:03:18.178Z,100029.53
2023-01-19T00:05:45.317Z,100033.34
2023-01-19T00:08:15.275Z,100029.03
2023-01-19T00:10:48.941Z,100038.25
2023-01-19T00:13:15.999Z,100046.41
2023-01-19T00:15:43.445Z,100068.13
2023-01-19T00:18:11.095Z,100065.41
2023-01-19T00:20:38.438Z,100067.63
2023-01-19T00:23:05.187Z,100065.19
2023-01-19T00:25:31.843Z,100076.03
2023-01-19T00:28:00.601Z,100067.09
2023-01-19T00:30:28.618Z,100068.50
2023-01-19T00:32:55.519Z,100070.38
2023-01-19T00:35:22.063Z,100073.41
2023-01-19T00:37:48.551Z,100082.34
2023-01-19T00:40:15.129Z,100085.38
2023-01-19T00:42:44.284Z,100087.78
2023-01-19T00:45:13.603Z,100081.84
2023-01-19T00:47:40.578Z,100081.84
2023-01-19T00:50:08.991Z,100090.25
2023-01-19T00:52:35.483Z,100090.25
2023-01-19T00:55:02.017Z,100090.56
2023-01-19T00:57:29.600Z,100094.66
2023-01-19T00:59:56.436Z,100093.84
2023-01-19T01:02:23.261Z,100101.19
2023-01-19T01:04:54.794Z,100102.28
2023-01-19T01:07:22.474Z,100096.88
2023-01-19T01:09:49.035Z,100103.38
2023-01-19T01:12:15.743Z,100107.19
2023-01-19T01:14:42.458Z,100104.47
2023-01-19T01:17:11.438Z,100112.09
2023-01-19T01:19:38.553Z,100110.47
2023-01-19T01:22:05.230Z,100117.00
2023-01-19T01:24:32.060Z,100122.44
2023-01-19T01:26:58.720Z,100116.47
2023-01-19T01:29:25.327Z,100125.72
2023-01-19T01:31:51.921Z,100129.22
2023-01-19T01:34:18.693Z,100136.88
2023-01-19T01:36:45.190Z,100150.72
2023-01-19T01:39:12.005Z,100150.72
2023-01-19T01:41:38.504Z,100146.38
2023-01-19T01:44:49.505Z,100149.91
2023-01-19T01:47:33.377Z,100157.53
2023-01-19T01:50:06.465Z,100170.28
2023-01-19T01:52:36.176Z,100165.16
2023-01-19T01:55:06.915Z,100173.59
2023-01-19T01:57:37.866Z,100173.81
2023-01-19T02:00:06.627Z,100173.81
2023-01-19T02:02:54.279Z,100173.00
2023-01-19T02:05:28.639Z,100175.72
2023-01-19T02:08:23.111Z,100171.66
2023-01-19T02:11:08.583Z,100188.78
2023-01-19T02:13:37.703Z,100179.00
2023-01-19T02:16:07.716Z,100172.78
2023-01-19T02:18:34.997Z,100177.41
2023-01-19T02:21:14.924Z,100185.00
2023-01-19T02:23:45.528Z,100196.94
2023-01-19T02:26:20.365Z,100190.72
2023-01-19T02:28:52.016Z,100197.75
2023-01-19T02:31:19.259Z,100195.34
2023-01-19T02:33:45.837Z,100200.75
2023-01-19T02:36:15.497Z,100196.44
2023-01-19T02:38:45.820Z,100191.81
2023-01-19T02:41:19.440Z,100170.38
2023-01-19T02:43:48.069Z,100189.38
2023-01-19T02:46:17.959Z,100227.66
2023-01-19T02:48:44.479Z,100221.41
2023-01-19T02:51:18.035Z,100223.31
2023-01-19T02:53:47.630Z,100203.53
2023-01-19T02:56:41.967Z,100200.81
2023-01-19T02:59:32.947Z,100195.97
2023-01-19T03:02:20.786Z,100186.72
2023-01-19T03:05:08.376Z,100188.88
2023-01-19T03:07:34.806Z,100178.88
2023-01-19T03:10:13.571Z,100181.84
2023-01-19T03:12:52.366Z,100178.34
2023-01-19T03:15:23.249Z,100172.09
2023-01-19T03:17:51.538Z,100173.22
2023-01-19T03:20:22.546Z,100164.53
2023-01-19T03:22:54.817Z,100166.97
2023-01-19T03:25:24.041Z,100175.38
2023-01-19T03:27:55.852Z,100174.88
2023-01-19T03:30:32.103Z,100176.75
2023-01-19T03:33:07.757Z,100185.41
2023-01-19T03:35:39.755Z,100183.81
2023-01-19T03:38:15.036Z,100184.88
2023-01-19T03:40:42.162Z,100193.03
2023-01-19T03:43:09.719Z,100188.69
2023-01-19T03:45:39.046Z,100192.50
2023-01-19T03:48:06.582Z,100191.72
2023-01-19T03:50:33.482Z,100197.13
2023-01-19T03:53:11.496Z,100197.94
2023-01-19T03:55:41.714Z,100186.53
2023-01-19T03:58:08.631Z,100185.75
2023-01-19T04:00:36.549Z,100187.34
2023-01-19T04:03:04.627Z,100186.03
2023-01-19T04:05:31.510Z,100186.31
2023-01-19T04:07:58.057Z,100209.09
2023-01-19T04:10:25.292Z,100218.84
2023-01-19T04:12:58.505Z,100234.56
2023-01-19T04:15:25.919Z,100222.59
2023-01-19T04:17:52.891Z,100228.03
2023-01-19T04:20:20.059Z,100232.38
2023-01-19T04:22:46.699Z,100228.34
2023-01-19T04:25:13.302Z,100234.84
2023-01-19T04:27:39.771Z,100227.81
2023-01-19T04:30:07.008Z,100221.28
2023-01-19T04:32:33.552Z,100230.53
2023-01-19T04:35:00.196Z,100233.50
2023-01-19T04:37:26.760Z,100240.53
2023-01-19T04:39:53.555Z,100239.72
2023-01-19T04:42:20.041Z,100233.81
2023-01-19T04:44:46.645Z,100242.75
2023-01-19T04:47:13.356Z,100225.66
2023-01-19T04:49:40.771Z,100230.53
2023-01-19T04:52:08.282Z,100229.44
2023-01-19T04:54:34.857Z,100241.69
2023-01-19T04:57:01.468Z,100232.75
2023-01-19T04:59:28.227Z,100240.59
2023-01-19T05:01:56.037Z,100235.13
2023-01-19T05:04:23.822Z,100235.09
2023-01-19T05:06:50.425Z,100245.63
2023-01-19T05:09:17.011Z,100236.34
2023-01-19T05:11:43.536Z,100235.47
2023-01-19T05:14:10.079Z,100247.34
2023-01-19T05:16:36.596Z,100244.31
2023-01-19T05:19:03.157Z,100248.88
2023-01-19T05:21:29.740Z,100241.72
2023-01-19T05:23:56.512Z,100250.84
2023-01-19T05:26:23.082Z,100251.06
2023-01-19T05:28:50.317Z,100251.91
2023-01-19T05:31:18.669Z,100260.28
2023-01-19T05:33:46.000Z,100263.22
2023-01-19T05:36:12.515Z,100253.75
2023-01-19T05:38:39.120Z,100259.47
2023-01-19T05:41:05.875Z,100268.41
2023-01-19T05:43:32.434Z,100264.66
2023-01-19T05:45:59.342Z,100262.53
2023-01-19T05:48:25.894Z,100262.00
2023-01-19T05:50:57.252Z,100274.22
2023-01-19T05:53:23.814Z,100268.53
2023-01-19T05:55:50.368Z,100274.16
2023-01-19T05:58:17.208Z,100277.09
2023-01-19T06:00:43.713Z,100275.19
2023-01-19T06:03:10.415Z,100283.06
2023-01-19T06:05:39.111Z,100283.88
2023-01-19T06:08:06.036Z,100283.34
2023-01-19T06:10:32.906Z,100280.91
2023-01-19T06:12:59.858Z,100288.25
2023-01-19T06:15:26.562Z,100296.59
2023-01-19T06:17:53.168Z,100296.03
2023-01-19T06:20:19.871Z,100304.16
2023-01-19T06:22:47.641Z,100305.25
2023-01-19T06:25:14.211Z,100304.44
2023-01-19T06:27:44.082Z,100306.66
2023-01-19T06:30:11.538Z,100315.34
2023-01-19T06:32:38.479Z,100308.81
2023-01-19T06:35:06.319Z,100322.06
2023-01-19T06:37:33.391Z,100327.19
2023-01-19T06:39:59.903Z,100328.78
2023-01-19T06:42:26.591Z,100329.09
2023-01-19T06:44:53.069Z,100337.25
2023-01-19T06:47:19.600Z,100344.84
2023-01-19T06:49:46.115Z,100343.25
2023-01-19T06:52:15.892Z,100342.44
2023-01-19T06:54:44.021Z,100352.13
2023-01-19T06:57:12.479Z,100351.88
2023-01-19T06:59:39.143Z,100352.69
2023-01-19T07:02:26.220Z,100363.53
2023-01-19T07:04:52.683Z,100369.84
2023-01-19T07:07:19.225Z,100379.88
2023-01-19T07:09:45.743Z,100376.63
2023-01-19T07:12:12.294Z,100381.25
2023-01-19T07:14:38.836Z,100386.38
2023-01-19T07:17:05.300Z,100387.13
2023-01-19T07:19:31.831Z,100394.97
2023-01-19T07:21:59.117Z,100392.56
2023-01-19T07:24:25.591Z,100396.09
2023-01-19T07:26:52.120Z,100398.28
2023-01-19T07:29:18.596Z,100401.28
2023-01-19T07:31:45.458Z,100401.56
2023-01-19T07:34:12.602Z,100405.84
2023-01-19T07:36:39.190Z,100408.28
2023-01-19T07:39:05.789Z,100405.28
2023-01-19T07:41:32.900Z,100411.81
2023-01-19T07:43:59.475Z,100415.91
2023-01-19T07:46:26.219Z,100414.59
2023-01-19T07:48:52.988Z,100415.41
2023-01-19T07:51:19.580Z,100433.06
2023-01-19T07:53:46.812Z,100431.97
2023-01-19T07:56:13.333Z,100437.88
2023-01-19T07:58:40.034Z,100430.78
2023-01-19T08:01:11.745Z,100433.25
2023-01-19T08:03:38.786Z,100441.41
2023-01-19T08:06:05.905Z,100446.28
2023-01-19T08:08:33.620Z,100450.41
2023-01-19T08:11:00.322Z,100451.22
2023-01-19T08:13:26.927Z,100453.63
2023-01-19T08:15:54.379Z,100465.88
2023-01-19T08:18:21.432Z,100461.47
2023-01-19T08:20:47.988Z,100457.97
2023-01-19T08:23:14.536Z,100460.97
2023-01-19T08:25:44.364Z,100471.84
2023-01-19T08:28:13.603Z,100466.97
2023-01-19T08:30:44.520Z,100478.94
2023-01-19T08:33:12.834Z,100471.59
2023-01-19T08:35:43.724Z,100472.66
2023-01-19T08:38:11.048Z,100475.88
2023-01-19T08:40:40.345Z,100470.44
2023-01-19T08:43:09.257Z,100477.50
2023-01-19T08:45:37.708Z,100483.22
2023-01-19T08:48:06.348Z,100491.38
2023-01-19T08:50:34.413Z,100478.06
2023-01-19T08:53:03.243Z,100489.78
2023-01-19T08:55:30.425Z,100485.38
2023-01-19T08:58:00.007Z,100494.34
2023-01-19T09:00:27.849Z,100491.88
2023-01-19T09:02:54.997Z,100491.38
2023-01-19T09:05:21.613Z,100500.63
2023-01-19T09:07:48.250Z,100499.81
2023-01-19T09:10:16.051Z,100503.63
2023-01-19T09:12:44.907Z,100495.47
2023-01-19T09:15:13.911Z,100510.66
2023-01-19T09:17:43.846Z,100510.34
2023-01-19T09:20:10.843Z,100514.97
2023-01-19T09:22:38.753Z,100504.66
2023-01-19T09:25:07.527Z,100510.66
2023-01-19T09:27:34.828Z,100518.25
2023-01-19T09:30:01.434Z,100509.03
2023-01-19T09:32:27.973Z,100522.63
2023-01-19T09:34:55.892Z,100514.97
2023-01-19T09:37:22.455Z,100518.50
2023-01-19T09:39:49.004Z,100525.00
2023-01-19T09:42:40.379Z,100528.75
2023-01-19T09:45:56.930Z,100530.06
2023-01-19T09:48:26.287Z,100531.41
2023-01-19T09:50:56.491Z,100533.56
2023-01-19T09:53:59.686Z,100537.03
2023-01-19T09:56:29.374Z,100548.16
2023-01-19T09:58:55.924Z,100545.16
2023-01-19T10:01:45.570Z,100548.97
2023-01-19T10:04:27.163Z,100550.06
2023-01-19T10:07:09.057Z,100549.25
2023-01-19T10:09:50.545Z,100543.81
2023-01-19T10:12:35.698Z,100546.25
2023-01-19T10:15:16.075Z,100552.22
2023-01-19T10:17:42.530Z,100548.97
2023-01-19T10:20:19.070Z,100554.41
2023-01-19T10:22:49.738Z,100563.66
2023-01-19T10:25:19.534Z,100565.63
2023-01-19T10:27:46.759Z,100562.00
2023-01-19T10:30:23.502Z,100560.25
2023-01-19T10:32:50.744Z,100565.69
2023-01-19T10:35:24.736Z,100570.50
2023-01-19T10:37:54.814Z,100566.66
2023-01-19T10:40:30.433Z,100569.06
2023-01-19T10:42:57.459Z,100559.59
2023-01-19T10:45:27.207Z,100568.25
2023-01-19T10:47:55.681Z,100561.72
2023-01-19T10:50:25.329Z,100564.19
2023-01-19T10:52:54.689Z,100576.72
2023-01-19T10:55:28.962Z,100564.97
2023-01-19T10:57:56.344Z,100566.03
2023-01-19T11:00:37.911Z,100563.25
2023-01-19T11:03:22.746Z,100569.53
2023-01-19T11:05:50.817Z,100564.91
2023-01-19T11:08:37.559Z,100564.66
2023-01-19T11:11:05.173Z,100567.63
2023-01-19T11:13:32.238Z,100567.66
2023-01-19T11:16:05.541Z,100574.44
2023-01-19T11:18:35.870Z,100575.00
2023-01-19T11:21:06.917Z,100580.69
2023-01-19T11:24:00.869Z,100584.22
2023-01-19T11:26:29.915Z,100578.50
2023-01-19T11:28:58.576Z,100579.34
2023-01-19T11:31:28.149Z,100578.00
2023-01-19T11:33:57.334Z,100576.41
2023-01-19T11:36:33.393Z,100568.78
2023-01-19T11:39:13.142Z,100565.47
2023-01-19T11:41:41.151Z,100566.00
2023-01-19T11:44:22.044Z,100574.69
2023-01-19T11:46:56.472Z,100570.28
2023-01-19T11:49:49.540Z,100570.84
2023-01-19T11:52:27.380Z,100572.19
2023-01-19T11:55:17.690Z,100575.97
2023-01-19T11:57:48.579Z,100579.22
2023-01-19T12:00:25.349Z,100572.94
2023-01-19T12:03:14.908Z,100567.22
2023-01-19T12:05:48.198Z,100569.16
2023-01-19T12:08:38.201Z,100569.94
2023-01-19T12:11:05.924Z,100563.41
2023-01-19T12:13:34.320Z,100565.84
2023-01-19T12:16:19.052Z,100566.13
2023-01-19T12:18:51.388Z,100573.47
2023-01-19T12:21:19.181Z,100572.69
2023-01-19T12:24:16.669Z,100562.28
2023-01-19T12:26:55.845Z,100564.50
2023-01-19T12:29:26.028Z,100556.84
2023-01-19T12:32:14.056Z,100556.84
2023-01-19T12:34:48.820Z,100556.00
2023-01-19T12:37:30.310Z,100560.56
2023-01-19T12:40:00.226Z,100556.19
2023-01-19T12:42:27.377Z,100547.19
2023-01-19T12:45:08.069Z,100555.38
2023-01-19T12:47:35.142Z,100553.69
2023-01-19T12:50:07.890Z,100558.31
2023-01-19T12:52:47.880Z,100560.75
2023-01-19T12:55:14.406Z,100559.41
2023-01-19T12:57:53.767Z,100559.13
2023-01-19T13:00:23.519Z,100563.78
2023-01-19T13:02:55.513Z,100558.31
2023-01-19T13:05:25.339Z,100557.75
2023-01-19T13:08:07.220Z,100561.03
2023-01-19T13:11:10.882Z,100561.56
2023-01-19T13:13:40.349Z,100552.31
2023-01-19T13:16:19.192Z,100563.19
2023-01-19T13:18:50.397Z,100558.03
2023-01-19T13:21:35.283Z,100561.03
2023-01-19T13:24:10.625Z,100546.31
2023-01-19T13:26:40.371Z,100564.50
2023-01-19T13:29:17.690Z,100567.22
2023-01-19T13:31:46.003Z,100557.94
2023-01-19T13:34:17.056Z,100558.47
2023-01-19T13:36:46.991Z,100563.34
2023-01-19T13:39:30.846Z,100564.16
2023-01-19T13:42:01.860Z,100577.47
2023-01-19T13:44:33.397Z,100581.31
2023-01-19T13:47:03.421Z,100574.75
2023-01-19T13:49:35.377Z,100584.56
2023-01-19T13:52:14.209Z,100585.63
2023-01-19T13:54:53.207Z,100582.91
2023-01-19T13:57:31.421Z,100580.72
2023-01-19T14:00:16.443Z,100587.78
2023-01-19T14:02:59.135Z,100571.44
2023-01-19T14:05:29.957Z,100584.78
2023-01-19T14:08:13.461Z,100578.25
2023-01-19T14:10:42.037Z,100587.22
2023-01-19T14:13:22.747Z,100584.72
2023-01-19T14:15:51.841Z,100586.34
2023-01-19T14:18:18.547Z,100582.88
2023-01-19T14:20:57.179Z,100598.91
2023-01-19T14:23:41.984Z,100587.53
2023-01-19T14:26:45.058Z,100597.00
2023-01-19T14:29:32.657Z,100601.63
2023-01-19T14:32:02.270Z,100603.56
2023-01-19T14:35:12.452Z,100598.91
2023-01-19T14:37:47.616Z,100604.91
2023-01-19T14:40:33.068Z,100603.25
2023-01-19T14:43:03.317Z,100605.69
2023-01-19T14:45:38.441Z,100602.97
2023-01-19T14:48:16.367Z,100608.44
2023-01-19T14:50:57.671Z,100621.47
2023-01-19T14:53:33.763Z,100613.28
2023-01-19T14:56:05.402Z,100617.41
2023-01-19T14:58:34.820Z,100622.84
2023-01-19T15:01:01.806Z,100625.28
2023-01-19T15:03:44.685Z,100624.78
2023-01-19T15:06:18.723Z,100623.97
2023-01-19T15:08:46.499Z,100627.50
2023-01-19T15:11:28.040Z,100623.44
2023-01-19T15:13:55.544Z,100640.31
2023-01-19T15:16:23.766Z,100635.94
2023-01-19T15:18:50.565Z,100628.59
2023-01-19T15:21:23.728Z,100639.75
2023-01-19T15:23:50.619Z,100635.13
2023-01-19T15:26:22.929Z,100633.50
2023-01-19T15:28:50.393Z,100639.25
2023-01-19T15:31:19.267Z,100632.97
2023-01-19T15:33:46.604Z,100636.53
2023-01-19T15:36:17.627Z,100638.97
2023-01-19T15:38:44.874Z,100639.25
2023-01-19T15:41:33.115Z,100642.78
2023-01-19T15:44:00.037Z,100640.34
2023-01-19T15:46:26.776Z,100640.34
2023-01-19T15:48:54.417Z,100647.69
2023-01-19T15:51:25.137Z,100652.63
2023-01-19T15:53:52.867Z,100653.44
2023-01-19T15:56:28.889Z,100651.22
2023-01-19T15:58:55.826Z,100657.47
2023-01-19T16:01:25.902Z,100658.59
2023-01-19T16:03:52.475Z,100656.97
2023-01-19T16:06:19.056Z,100658.09
2023-01-19T16:08:45.715Z,100667.34
2023-01-19T16:11:15.557Z,100667.34
2023-01-19T16:13:46.206Z,100665.22
2023-01-19T16:16:16.762Z,100669.56
2023-01-19T16:18:43.335Z,100669.81
2023-01-19T16:21:09.906Z,100684.28
2023-01-19T16:23:36.404Z,100695.44
2023-01-19T16:26:21.112Z,100700.06
2023-01-19T16:28:47.684Z,100701.19
2023-01-19T16:31:16.607Z,100717.78
2023-01-19T16:33:44.971Z,100715.06
2023-01-19T16:36:25.284Z,100727.88
2023-01-19T16:38:52.079Z,100732.19
2023-01-19T16:41:18.877Z,100730.88
2023-01-19T16:43:51.792Z,100740.97
2023-01-19T16:46:21.377Z,100743.69
2023-01-19T16:48:48.231Z,100738.50
2023-01-19T16:51:14.913Z,100750.22
2023-01-19T16:53:41.591Z,100738.50
2023-01-19T16:56:10.495Z,100735.53
2023-01-19T17:02:17.375Z,100727.88
2023-01-19T17:04:43.921Z,100726.75
2023-01-19T17:07:10.562Z,100719.69
2023-01-19T17:09:37.208Z,100716.47
2023-01-19T17:12:04.117Z,100700.94
2023-01-19T17:14:30.694Z,100703.34
2023-01-19T17:16:57.297Z,100712.34
2023-01-19T17:19:23.885Z,100709.91
2023-01-19T17:21:50.729Z,100714.25
2023-01-19T17:24:17.653Z,100712.63
2023-01-19T17:26:46.112Z,100718.09
2023-01-19T17:29:12.649Z,100724.63
2023-01-19T17:31:39.234Z,100729.28
2023-01-19T17:34:06.235Z,100727.91
2023-01-19T17:36:33.559Z,100723.28
2023-01-19T17:39:07.182Z,100741.53
2023-01-19T17:41:35.301Z,100733.63
2023-01-19T17:44:03.409Z,100732.81
2023-01-19T17:46:30.242Z,100734.47
2023-01-19T17:48:58.886Z,100728.50
2023-01-19T17:51:26.469Z,100735.53
2023-01-19T17:53:54.023Z,100726.88
2023-01-19T17:56:22.935Z,100739.06
2023-01-19T17:58:49.888Z,100739.06
2023-01-19T18:01:22.184Z,100733.63
2023-01-19T18:03:49.093Z,100739.63
2023-01-19T18:06:16.290Z,100739.63
2023-01-19T18:08:46.359Z,100754.53
2023-01-19T18:11:14.891Z,100760.13
2023-01-19T18:13:43.947Z,100775.03
2023-01-19T18:16:13.961Z,100774.56
2023-01-19T18:18:41.131Z,100777.78
2023-01-19T18:21:10.079Z,100768.81
2023-01-19T18:23:37.168Z,100762.56
2023-01-19T18:26:08.175Z,100745.72
2023-01-19T18:28:35.544Z,100741.34
2023-01-19T18:31:03.209Z,100747.75
2023-01-19T18:33:31.458Z,100752.13
2023-01-19T18:35:57.965Z,100758.84
2023-01-19T18:38:24.447Z,100748.84
2023-01-19T18:41:03.546Z,100749.13
2023-01-19T18:43:30.217Z,100761.41
2023-01-19T18:45:57.166Z,100765.00
2023-01-19T18:48:23.995Z,100765.81
2023-01-19T18:50:51.014Z,100767.31
2023-01-19T18:53:18.039Z,100778.50
2023-01-19T18:55:56.359Z,100780.44
2023-01-19T18:58:23.800Z,100776.91
2023-01-19T19:00:50.673Z,100781.81
2023-01-19T19:03:17.496Z,100776.66
2023-01-19T19:05:44.053Z,100785.38
2023-01-19T19:08:10.746Z,100791.13
2023-01-19T19:10:37.341Z,100813.19
2023-01-19T19:13:03.915Z,100809.16
2023-01-19T19:15:32.677Z,100812.38
2023-01-19T19:17:59.433Z,100810.72
2023-01-19T19:20:26.195Z,100828.47
2023-01-19T19:22:52.763Z,100826.81
2023-01-19T19:25:19.282Z,100822.19
2023-01-19T19:27:48.217Z,100821.66
2023-01-19T19:30:15.453Z,100815.16
2023-01-19T19:32:42.203Z,100819.00
2023-01-19T19:35:09.325Z,100821.13
2023-01-19T19:37:35.820Z,100814.59
2023-01-19T19:40:02.428Z,100817.31
2023-01-19T19:42:30.247Z,100814.59
2023-01-19T19:44:56.868Z,100812.13
2023-01-19T19:47:24.544Z,100826.06
2023-01-19T19:49:51.235Z,100815.44
2023-01-19T19:52:17.836Z,100828.25
2023-01-19T19:54:45.138Z,100829.88
2023-01-19T19:57:11.629Z,100823.84
2023-01-19T19:59:38.453Z,100838.00
2023-01-19T20:02:05.186Z,100837.47
2023-01-19T20:04:31.836Z,100834.22
2023-01-19T20:07:00.045Z,100839.13
2023-01-19T20:09:26.572Z,100845.69
2023-01-19T20:11:53.056Z,100847.91
2023-01-19T20:14:20.224Z,100856.88
2023-01-19T20:16:46.808Z,100855.47
2023-01-19T20:19:13.375Z,100849.47
2023-01-19T20:21:41.881Z,100853.28
2023-01-19T20:24:13.576Z,100870.75
2023-01-19T20:26:44.545Z,100872.63
2023-01-19T20:29:11.848Z,100869.69
2023-01-19T20:31:42.993Z,100879.72
2023-01-19T20:34:11.563Z,100877.31
2023-01-19T20:36:38.353Z,100889.56
2023-01-19T20:39:08.506Z,100897.22
2023-01-19T20:41:42.812Z,100884.41
2023-01-19T20:44:15.098Z,100896.13
2023-01-19T20:46:42.103Z,100885.53
2023-01-19T20:49:08.752Z,100878.16
2023-01-19T20:51:37.415Z,100894.00
2023-01-19T20:54:04.352Z,100890.72
2023-01-19T20:56:30.888Z,100895.91
2023-01-19T20:58:59.235Z,100899.75
2023-01-19T21:01:26.597Z,100906.56
2023-01-19T21:03:53.276Z,100907.66
2023-01-19T21:06:21.748Z,100910.69
2023-01-19T21:08:51.716Z,100900.34
2023-01-19T21:11:20.921Z,100899.78
2023-01-19T21:13:49.001Z,100903.91
2023-01-19T21:16:15.928Z,100906.38
2023-01-19T21:18:42.887Z,100911.56
2023-01-19T21:21:20.825Z,100914.03
2023-01-19T21:24:00.528Z,100914.84
2023-01-19T21:26:29.996Z,100914.59
2023-01-19T21:28:58.156Z,100911.88
2023-01-19T21:31:27.356Z,100918.66
2023-01-19T21:33:54.454Z,100922.50
2023-01-19T21:36:21.479Z,100920.84
2023-01-19T21:38:48.325Z,100915.94
2023-01-19T21:41:16.255Z,100923.56
2023-01-19T21:43:43.251Z,100927.66
2023-01-19T21:46:12.317Z,100926.88
2023-01-19T21:48:39.173Z,100934.47
2023-01-19T21:51:05.929Z,100921.97
2023-01-19T21:53:33.399Z,100936.69
2023-01-19T21:56:00.385Z,100926.34
2023-01-19T21:58:27.830Z,100936.66
2023-01-19T22:01:05.729Z,100935.84
2023-01-19T22:03:32.708Z,100945.38
2023-01-19T22:06:07.848Z,100939.94
2023-01-19T22:08:34.961Z,100936.16
2023-01-19T22:11:10.015Z,100946.22
2023-01-19T22:13:38.776Z,100963.09
2023-01-19T22:16:11.210Z,100967.72
2023-01-19T22:18:39.279Z,100974.53
2023-01-19T22:21:12.198Z,100992.72
2023-01-19T22:23:39.051Z,100983.25
2023-01-19T22:26:06.917Z,100980.53
2023-01-19T22:28:34.045Z,100983.25
2023-01-19T22:31:12.634Z,100982.97
2023-01-19T22:33:40.188Z,100986.50
2023-01-19T22:36:17.000Z,100980.50
2023-01-19T22:38:44.717Z,100973.75
2023-01-19T22:41:16.865Z,100978.38
2023-01-19T22:43:44.433Z,100985.97
2023-01-19T22:46:11.156Z,100985.16
2023-01-19T22:48:38.214Z,100978.34
2023-01-19T22:51:04.830Z,100984.88
2023-01-19T22:53:31.852Z,100982.97
2023-01-19T22:55:58.567Z,100990.88
2023-01-19T22:58:25.032Z,100978.91
2023-01-19T23:00:51.658Z,100987.63
2023-01-19T23:03:18.227Z,100984.91
2023-01-19T23:05:44.763Z,100988.97
2023-01-19T23:08:11.306Z,100987.59
2023-01-19T23:10:40.947Z,100995.75
2023-01-19T23:13:07.476Z,100995.25
2023-01-19T23:15:34.846Z,100997.97
2023-01-19T23:18:01.617Z,100999.03
2023-01-19T23:20:28.208Z,100991.16
2023-01-19T23:22:54.700Z,101002.31
2023-01-19T23:25:21.374Z,101007.47
2023-01-19T23:27:47.876Z,101005.56
2023-01-19T23:30:14.515Z,101005.81
2023-01-19T23:32:46.897Z,101005.81
2023-01-19T23:35:14.708Z,101017.25
2023-01-19T23:37:41.609Z,101016.16
2023-01-19T23:40:09.930Z,101015.06
2023-01-19T23:42:36.764Z,101010.47
2023-01-19T23:45:03.511Z,101018.59
2023-01-19T23:47:29.995Z,101012.91
2023-01-19T23:49:56.462Z,101015.84
2023-01-19T23:52:23.036Z,101018.56
2023-01-19T23:54:49.502Z,101019.66
2023-01-19T23:57:16.001Z,101017.22
2023-01-19T23:59:42.765Z,101010.97
